createdAt,value
2019-04-20T00:00:10.950Z,13.13
2019-04-20T00:02:39.901Z,11.05
2019-04-20T00:05:09.429Z,9.78
2019-04-20T00:07:39.696Z,11.95
2019-04-20T00:10:15.054Z,11.57
2019-04-20T00:12:54.520Z,8.65
2019-04-20T00:15:11.578Z,11.55
2019-04-20T00:17:45.915Z,11.60
2019-04-20T00:20:20.087Z,9.55
2019-04-20T00:22:55.488Z,10.28
2019-04-20T00:25:52.220Z,11.83
2019-04-20T00:28:31.359Z,12.25
2019-04-20T00:31:04.237Z,11.10
2019-04-20T00:35:44.728Z,9.83
2019-04-20T00:38:14.092Z,11.25
2019-04-20T00:40:43.478Z,13.08
2019-04-20T00:43:19.420Z,11.10
2019-04-20T00:45:57.146Z,11.43
2019-04-20T00:48:22.577Z,12.10
2019-04-20T00:50:59.286Z,11.08
2019-04-20T00:53:25.988Z,10.90
2019-04-20T00:55:48.594Z,10.10
2019-04-20T00:58:27.023Z,10.08
2019-04-20T01:01:15.353Z,13.45
2019-04-20T01:03:34.106Z,14.23
2019-04-20T01:06:16.267Z,15.65
2019-04-20T01:08:46.617Z,16.12
2019-04-20T01:11:22.961Z,16.57
2019-04-20T01:13:52.690Z,12.25
2019-04-20T01:16:29.596Z,12.30
2019-04-20T01:18:49.213Z,12.33
2019-04-20T01:21:23.579Z,11.78
2019-04-20T01:23:56.192Z,13.48
2019-04-20T01:26:22.589Z,12.60
2019-04-20T01:29:06.767Z,15.18
2019-04-20T01:31:33.979Z,18.52
2019-04-20T01:34:05.046Z,17.85
2019-04-20T01:36:46.157Z,12.95
2019-04-20T01:39:09.424Z,11.85
2019-04-20T01:41:28.578Z,16.20
2019-04-20T01:43:58.575Z,18.23
2019-04-20T01:46:30.016Z,16.02
2019-04-20T01:49:05.666Z,14.80
2019-04-20T01:51:39.278Z,15.53
2019-04-20T01:54:16.054Z,15.78
2019-04-20T01:56:47.697Z,13.10
2019-04-20T01:59:21.418Z,12.65
2019-04-20T02:01:55.639Z,14.03
2019-04-20T02:04:30.974Z,14.87
2019-04-20T02:06:59.937Z,15.40
2019-04-20T02:09:30.869Z,14.73
2019-04-20T02:12:06.980Z,17.40
2019-04-20T02:14:40.491Z,18.67
2019-04-20T02:17:09.557Z,16.20
2019-04-20T02:19:42.805Z,16.42
2019-04-20T02:22:15.678Z,15.53
2019-04-20T02:24:37.003Z,16.60
2019-04-20T02:27:06.187Z,16.02
2019-04-20T02:30:02.520Z,17.02
2019-04-20T02:35:18.703Z,14.45
2019-04-20T02:37:58.473Z,15.00
2019-04-20T02:40:19.153Z,14.50
2019-04-20T02:42:51.537Z,15.23
2019-04-20T02:45:28.588Z,18.40
2019-04-20T02:47:53.500Z,15.40
2019-04-20T02:50:20.532Z,16.37
2019-04-20T02:52:56.333Z,15.40
2019-04-20T02:55:24.818Z,17.12
2019-04-20T03:00:18.285Z,18.30
2019-04-20T03:02:41.560Z,17.37
2019-04-20T03:05:13.339Z,20.62
2019-04-20T03:07:50.349Z,19.05
2019-04-20T03:10:17.769Z,18.20
2019-04-20T03:12:53.474Z,19.27
2019-04-20T03:15:29.518Z,20.20
2019-04-20T03:18:00.682Z,23.92
2019-04-20T03:20:32.291Z,19.42
2019-04-20T03:23:17.542Z,19.27
2019-04-20T03:25:49.729Z,23.47
2019-04-20T03:28:21.936Z,22.32
2019-04-20T03:31:25.068Z,20.45
2019-04-20T03:33:44.938Z,23.30
2019-04-20T03:36:09.326Z,22.40
2019-04-20T03:38:26.224Z,21.95
2019-04-20T03:40:49.628Z,20.92
2019-04-20T03:43:07.722Z,26.68
2019-04-20T03:45:44.591Z,23.62
2019-04-20T03:48:22.985Z,25.75
2019-04-20T03:50:56.615Z,24.32
2019-04-20T03:53:34.423Z,26.42
2019-04-20T03:56:03.829Z,27.10
2019-04-20T03:58:48.247Z,28.25
2019-04-20T04:01:32.769Z,31.57
2019-04-20T04:04:05.238Z,26.75
2019-04-20T04:06:24.260Z,24.12
2019-04-20T04:08:59.925Z,34.10
2019-04-20T04:11:32.654Z,28.10
2019-04-20T04:13:48.136Z,26.68
2019-04-20T04:16:21.561Z,25.72
2019-04-20T04:18:59.168Z,22.13
2019-04-20T04:21:35.514Z,23.52
2019-04-20T04:24:06.774Z,18.82
2019-04-20T04:26:39.177Z,20.92
2019-04-20T04:29:22.625Z,20.15
2019-04-20T04:31:50.785Z,18.70
2019-04-20T04:34:12.533Z,21.55
2019-04-20T04:36:52.401Z,32.90
2019-04-20T04:39:21.175Z,34.30
2019-04-20T04:41:52.348Z,29.63
2019-04-20T04:44:14.731Z,35.05
2019-04-20T04:46:33.882Z,28.23
2019-04-20T04:49:13.301Z,27.07
2019-04-20T04:51:47.078Z,28.87
2019-04-20T04:54:16.763Z,30.90
2019-04-20T04:56:35.646Z,25.77
2019-04-20T04:59:06.152Z,22.75
2019-04-20T05:01:38.614Z,21.48
2019-04-20T05:04:25.158Z,19.67
2019-04-20T05:06:53.580Z,19.57
2019-04-20T05:09:12.525Z,21.23
2019-04-20T05:11:40.682Z,22.62
2019-04-20T05:14:18.645Z,20.68
2019-04-20T05:16:58.291Z,19.95
2019-04-20T05:19:38.418Z,19.98
2019-04-20T05:22:11.120Z,19.37
2019-04-20T05:24:33.770Z,18.15
2019-04-20T05:27:13.417Z,19.57
2019-04-20T05:29:28.247Z,18.27
2019-04-20T05:31:58.681Z,17.67
2019-04-20T05:34:48.004Z,19.48
2019-04-20T05:37:20.938Z,19.80
2019-04-20T05:39:52.747Z,19.70
2019-04-20T05:42:24.603Z,19.75
2019-04-20T05:44:52.790Z,22.62
2019-04-20T05:47:22.687Z,18.42
2019-04-20T05:49:51.978Z,17.17
2019-04-20T05:52:35.092Z,17.15
2019-04-20T05:54:58.240Z,20.88
2019-04-20T05:57:31.943Z,18.42
2019-04-20T06:00:08.373Z,22.48
2019-04-20T06:02:32.084Z,17.77
2019-04-20T06:05:05.672Z,18.42
2019-04-20T06:07:34.766Z,20.02
2019-04-20T06:10:06.230Z,17.48
2019-04-20T06:12:35.789Z,21.85
2019-04-20T06:15:09.421Z,17.60
2019-04-20T06:18:03.875Z,16.52
2019-04-20T06:23:33.814Z,19.42
2019-04-20T06:28:43.903Z,13.40
2019-04-20T06:31:26.733Z,13.45
2019-04-20T06:34:28.006Z,12.18
2019-04-20T06:36:55.832Z,14.65
2019-04-20T06:39:20.261Z,13.32
2019-04-20T06:44:27.627Z,13.30
2019-04-20T06:46:59.027Z,14.38
2019-04-20T06:49:30.192Z,9.13
2019-04-20T06:51:58.662Z,19.02
2019-04-20T06:54:17.626Z,13.00
2019-04-20T06:56:59.918Z,10.25
2019-04-20T06:59:42.288Z,9.38
2019-04-20T07:02:15.300Z,13.75
2019-04-20T07:07:11.591Z,10.32
2019-04-20T07:09:47.354Z,13.70
2019-04-20T07:12:03.130Z,10.38
2019-04-20T07:14:28.930Z,18.32
2019-04-20T07:17:17.944Z,9.30
2019-04-20T07:19:42.469Z,10.15
2019-04-20T07:27:19.338Z,8.05
2019-04-20T07:30:08.042Z,10.15
2019-04-20T07:32:17.899Z,9.65
2019-04-20T07:34:55.775Z,10.70
2019-04-20T07:38:07.122Z,7.85
2019-04-20T07:40:05.959Z,7.83
2019-04-20T07:42:45.033Z,8.23
2019-04-20T07:45:07.234Z,7.97
2019-04-20T07:47:40.618Z,9.33
2019-04-20T07:50:05.159Z,8.38
2019-04-20T07:52:36.943Z,7.97
2019-04-20T07:55:33.325Z,7.00
2019-04-20T07:57:38.538Z,6.78
2019-04-20T08:00:13.493Z,10.98
2019-04-20T08:03:11.908Z,9.60
2019-04-20T08:08:28.294Z,8.15
2019-04-20T08:11:06.231Z,10.30
2019-04-20T08:13:42.134Z,9.08
2019-04-20T08:16:06.352Z,12.70
2019-04-20T08:18:40.239Z,9.20
2019-04-20T08:21:12.881Z,8.95
2019-04-20T08:23:44.461Z,10.70
2019-04-20T08:26:01.710Z,10.43
2019-04-20T08:28:37.204Z,23.35
2019-04-20T08:31:15.328Z,14.65
2019-04-20T08:34:01.902Z,11.05
2019-04-20T08:36:27.259Z,8.48
2019-04-20T08:39:19.953Z,15.90
2019-04-20T08:41:23.182Z,8.53
2019-04-20T08:44:02.862Z,9.58
2019-04-20T08:46:34.839Z,10.28
2019-04-20T08:49:01.553Z,10.55
2019-04-20T08:51:38.643Z,9.63
2019-04-20T08:54:03.609Z,8.78
2019-04-20T08:56:24.587Z,9.48
2019-04-20T08:58:46.115Z,14.53
2019-04-20T09:01:21.595Z,12.78
2019-04-20T09:04:01.426Z,12.10
2019-04-20T09:06:33.613Z,17.30
2019-04-20T09:09:03.648Z,13.43
2019-04-20T09:11:45.140Z,13.83
2019-04-20T09:13:55.750Z,20.32
2019-04-20T09:16:32.070Z,7.53
2019-04-20T09:18:59.924Z,8.60
2019-04-20T09:21:36.269Z,8.25
2019-04-20T09:24:19.979Z,6.28
2019-04-20T09:26:43.218Z,6.78
2019-04-20T09:29:12.555Z,4.87
2019-04-20T09:31:43.363Z,7.08
2019-04-20T09:34:20.286Z,8.55
2019-04-20T09:36:49.363Z,12.18
2019-04-20T09:39:30.662Z,8.68
2019-04-20T09:42:13.616Z,6.00
2019-04-20T09:44:48.732Z,6.67
2019-04-20T09:47:14.288Z,7.53
2019-04-20T09:49:55.053Z,7.05
2019-04-20T09:52:30.022Z,8.88
2019-04-20T09:55:03.086Z,6.47
2019-04-20T09:57:33.547Z,5.15
2019-04-20T10:00:07.218Z,5.60
2019-04-20T10:02:24.899Z,4.97
2019-04-20T10:04:53.509Z,5.10
2019-04-20T10:07:26.140Z,8.03
2019-04-20T10:09:55.674Z,7.33
2019-04-20T10:12:26.017Z,5.87
2019-04-20T10:15:04.216Z,6.05
2019-04-20T10:17:31.723Z,7.92
2019-04-20T10:20:08.637Z,7.20
2019-04-20T10:22:32.901Z,15.38
2019-04-20T10:25:06.702Z,8.53
2019-04-20T10:27:36.743Z,13.38
2019-04-20T10:30:06.614Z,7.30
2019-04-20T10:32:40.441Z,8.35
2019-04-20T10:35:08.604Z,10.15
2019-04-20T10:37:40.028Z,8.25
2019-04-20T10:40:09.697Z,8.55
2019-04-20T10:42:39.179Z,12.68
2019-04-20T10:45:08.924Z,7.58
2019-04-20T10:47:38.954Z,10.45
2019-04-20T10:50:09.248Z,18.02
2019-04-20T10:52:38.754Z,10.38
2019-04-20T10:55:08.515Z,15.10
2019-04-20T10:57:39.366Z,10.72
2019-04-20T11:00:10.674Z,10.93
2019-04-20T11:02:43.036Z,12.23
2019-04-20T11:05:12.683Z,13.20
2019-04-20T11:07:42.522Z,11.40
2019-04-20T11:10:19.815Z,12.73
2019-04-20T11:12:44.275Z,11.88
2019-04-20T11:15:14.589Z,11.85
2019-04-20T11:17:44.097Z,11.70
2019-04-20T11:20:15.097Z,13.53
2019-04-20T11:22:44.681Z,10.00
2019-04-20T11:25:16.466Z,13.28
2019-04-20T11:27:46.069Z,8.88
2019-04-20T11:30:16.147Z,9.25
2019-04-20T11:32:46.286Z,10.20
2019-04-20T11:35:23.811Z,10.15
2019-04-20T11:37:47.357Z,12.18
2019-04-20T11:40:17.066Z,10.28
2019-04-20T11:42:47.833Z,11.97
2019-04-20T11:45:18.421Z,10.70
2019-04-20T11:47:49.476Z,12.07
2019-04-20T11:50:19.835Z,9.25
2019-04-20T11:52:51.523Z,7.60
2019-04-20T11:55:22.290Z,12.65
2019-04-20T11:57:51.853Z,10.00
2019-04-20T12:00:25.326Z,9.18
2019-04-20T12:03:09.572Z,10.18
2019-04-20T12:05:39.652Z,6.92
2019-04-20T12:08:09.251Z,9.48
2019-04-20T12:10:43.857Z,7.58
2019-04-20T12:13:14.462Z,10.03
2019-04-20T12:15:43.887Z,7.67
2019-04-20T12:18:13.792Z,7.25
2019-04-20T12:20:43.322Z,12.18
2019-04-20T12:23:12.768Z,7.83
2019-04-20T12:25:44.304Z,10.43
2019-04-20T12:28:15.762Z,11.95
2019-04-20T12:30:45.964Z,8.78
2019-04-20T12:33:15.658Z,9.05
2019-04-20T12:35:45.445Z,10.32
2019-04-20T12:38:14.977Z,17.50
2019-04-20T12:40:44.446Z,7.28
2019-04-20T12:43:15.161Z,8.78
2019-04-20T12:45:44.689Z,8.45
2019-04-20T12:48:15.544Z,8.93
2019-04-20T12:50:45.716Z,7.87
2019-04-20T12:53:15.205Z,7.25
2019-04-20T12:55:44.591Z,6.25
2019-04-20T12:58:14.614Z,8.98
2019-04-20T13:00:49.254Z,9.35
2019-04-20T13:03:19.414Z,7.62
2019-04-20T13:05:50.035Z,5.90
2019-04-20T13:08:26.929Z,6.22
2019-04-20T13:10:52.793Z,8.40
2019-04-20T13:13:30.555Z,9.20
2019-04-20T13:16:20.630Z,7.03
2019-04-20T13:18:55.236Z,8.73
2019-04-20T13:21:25.171Z,7.92
2019-04-20T13:23:55.324Z,7.33
2019-04-20T13:26:27.038Z,8.45
2019-04-20T13:29:00.993Z,7.45
2019-04-20T13:31:31.667Z,9.40
2019-04-20T13:34:03.531Z,6.78
2019-04-20T13:36:34.586Z,18.85
2019-04-20T13:39:08.188Z,9.08
2019-04-20T13:41:38.133Z,8.10
2019-04-20T13:44:08.352Z,9.05
2019-04-20T13:46:38.865Z,9.43
2019-04-20T13:49:09.279Z,8.33
2019-04-20T13:51:39.121Z,15.35
2019-04-20T13:54:15.086Z,8.65
2019-04-20T13:56:41.826Z,8.35
2019-04-20T13:59:21.995Z,11.43
2019-04-20T14:01:53.235Z,8.50
2019-04-20T14:04:24.277Z,6.28
2019-04-20T14:06:57.427Z,20.92
2019-04-20T14:09:29.739Z,11.00
2019-04-20T14:12:12.712Z,9.45
2019-04-20T14:14:31.038Z,8.33
2019-04-20T14:17:01.204Z,8.75
2019-04-20T14:19:31.445Z,10.13
2019-04-20T14:22:02.110Z,10.50
2019-04-20T14:24:33.054Z,16.02
2019-04-20T14:27:03.322Z,9.28
2019-04-20T14:29:32.867Z,10.50
2019-04-20T14:32:03.633Z,7.35
2019-04-20T14:34:33.321Z,8.90
2019-04-20T14:37:02.857Z,5.85
2019-04-20T14:39:32.364Z,8.30
2019-04-20T14:42:02.459Z,6.40
2019-04-20T14:44:32.126Z,10.50
2019-04-20T14:47:01.554Z,7.15
2019-04-20T14:49:31.016Z,14.23
2019-04-20T14:52:01.558Z,8.05
2019-04-20T14:57:01.269Z,10.00
2019-04-20T14:59:33.688Z,10.55
2019-04-20T15:02:10.885Z,6.72
2019-04-20T15:04:41.219Z,5.70
2019-04-20T15:07:10.917Z,8.93
2019-04-20T15:09:40.676Z,11.12
2019-04-20T15:12:10.923Z,9.20
2019-04-20T15:14:40.849Z,7.15
2019-04-20T15:17:11.923Z,5.87
2019-04-20T15:19:45.625Z,7.78
2019-04-20T15:22:31.814Z,8.03
2019-04-20T15:25:01.274Z,20.95
2019-04-20T15:27:30.681Z,8.30
2019-04-20T15:30:00.332Z,13.70
2019-04-20T15:32:31.237Z,8.98
2019-04-20T15:35:00.921Z,7.03
2019-04-20T15:37:30.958Z,12.45
2019-04-20T15:40:01.194Z,8.83
2019-04-20T15:42:30.627Z,8.43
2019-04-20T15:45:01.153Z,23.25
2019-04-20T15:47:31.966Z,17.48
2019-04-20T15:50:02.256Z,9.43
2019-04-20T15:52:39.963Z,21.42
2019-04-20T15:55:11.816Z,14.85
2019-04-20T15:57:34.911Z,10.20
2019-04-20T16:00:06.678Z,13.45
2019-04-20T16:02:39.044Z,12.55
2019-04-20T16:05:19.025Z,27.90
2019-04-20T16:07:53.484Z,15.05
2019-04-20T16:10:19.594Z,9.10
2019-04-20T16:13:02.965Z,10.20
2019-04-20T16:15:20.264Z,31.40
2019-04-20T16:17:53.013Z,29.02
2019-04-20T16:20:23.565Z,35.33
2019-04-20T16:22:52.269Z,16.32
2019-04-20T16:25:23.552Z,15.70
2019-04-20T16:27:53.836Z,23.02
2019-04-20T16:30:23.445Z,26.87
2019-04-20T16:32:52.868Z,28.73
2019-04-20T16:35:22.599Z,36.42
2019-04-20T16:37:52.697Z,49.08
2019-04-20T16:40:23.415Z,46.92
2019-04-20T16:42:54.227Z,40.38
2019-04-20T16:45:23.779Z,43.33
2019-04-20T16:47:54.407Z,24.98
2019-04-20T16:50:24.767Z,19.48
2019-04-20T16:52:54.965Z,15.03
2019-04-20T16:55:25.140Z,14.78
2019-04-20T16:57:55.539Z,25.88
2019-04-20T17:00:25.531Z,29.10
2019-04-20T17:02:56.169Z,13.43
2019-04-20T17:05:25.930Z,15.75
2019-04-20T17:07:58.337Z,14.33
2019-04-20T17:10:28.864Z,20.92
2019-04-20T17:12:59.804Z,15.10
2019-04-20T17:15:29.711Z,15.28
2019-04-20T17:17:58.967Z,23.40
2019-04-20T17:20:30.673Z,19.90
2019-04-20T17:23:02.110Z,12.93
2019-04-20T17:25:32.240Z,11.70
2019-04-20T17:28:20.687Z,15.48
2019-04-20T17:30:52.924Z,17.27
2019-04-20T17:33:53.381Z,15.03
2019-04-20T17:36:19.803Z,12.85
2019-04-20T17:38:52.603Z,11.38
2019-04-20T17:41:43.030Z,12.05
2019-04-20T17:44:05.841Z,40.03
2019-04-20T17:46:35.791Z,35.90
2019-04-20T17:49:09.281Z,27.62
2019-04-20T17:51:47.569Z,29.30
2019-04-20T17:54:06.974Z,34.20
2019-04-20T17:56:36.241Z,42.27
2019-04-20T17:59:06.118Z,43.08
2019-04-20T18:02:07.870Z,53.73
2019-04-20T18:04:54.908Z,51.42
2019-04-20T18:07:18.305Z,58.28
2019-04-20T18:09:49.286Z,70.05
2019-04-20T18:12:06.247Z,49.20
2019-04-20T18:14:46.069Z,93.45
2019-04-20T18:17:17.880Z,152.55
2019-04-20T18:19:55.107Z,150.55
2019-04-20T18:22:25.763Z,99.60
2019-04-20T18:25:14.700Z,67.97
2019-04-20T18:27:41.561Z,39.75
2019-04-20T18:30:15.520Z,39.33
2019-04-20T18:35:18.755Z,50.25
2019-04-20T18:37:53.628Z,56.68
2019-04-20T18:40:29.010Z,61.10
2019-04-20T18:43:06.363Z,55.60
2019-04-20T18:45:33.740Z,53.87
2019-04-20T18:48:14.658Z,48.80
2019-04-20T18:50:32.865Z,53.13
2019-04-20T18:52:55.891Z,53.52
2019-04-20T18:55:36.527Z,50.73
2019-04-20T18:57:57.279Z,40.48
2019-04-20T19:00:32.459Z,41.15
2019-04-20T19:03:11.140Z,49.00
2019-04-20T19:05:29.583Z,64.42
2019-04-20T19:08:03.368Z,72.25
2019-04-20T19:10:35.008Z,64.27
2019-04-20T19:13:06.241Z,40.80
2019-04-20T19:16:03.583Z,34.73
2019-04-20T19:18:45.226Z,33.38
2019-04-20T19:24:00.277Z,36.68
2019-04-20T19:26:25.603Z,34.48
2019-04-20T19:28:59.402Z,34.88
2019-04-20T19:31:42.721Z,34.18
2019-04-20T19:34:15.337Z,26.93
2019-04-20T19:36:36.774Z,31.65
2019-04-20T19:39:17.258Z,27.52
2019-04-20T19:41:42.250Z,23.92
2019-04-20T19:44:13.579Z,26.95
2019-04-20T19:47:03.295Z,26.60
2019-04-20T19:49:19.265Z,37.73
2019-04-20T19:52:02.889Z,38.70
2019-04-20T19:54:29.988Z,29.55
2019-04-20T19:56:56.324Z,21.33
2019-04-20T19:59:19.821Z,25.17
2019-04-20T20:01:40.319Z,21.82
2019-04-20T20:04:11.511Z,20.12
2019-04-20T20:06:47.250Z,20.25
2019-04-20T20:09:13.343Z,20.15
2019-04-20T20:11:45.008Z,19.98
2019-04-20T20:14:17.960Z,21.52
2019-04-20T20:17:04.169Z,23.32
2019-04-20T20:19:32.342Z,27.58
2019-04-20T20:22:02.297Z,33.08
2019-04-20T20:24:19.656Z,30.77
2019-04-20T20:26:56.357Z,35.75
2019-04-20T20:29:30.524Z,25.80
2019-04-20T20:32:05.263Z,24.52
2019-04-20T20:34:31.094Z,22.15
2019-04-20T20:37:01.786Z,21.52
2019-04-20T20:39:31.070Z,20.65
2019-04-20T20:42:12.869Z,18.95
2019-04-20T20:44:42.804Z,18.42
2019-04-20T20:47:21.788Z,13.80
2019-04-20T20:49:58.511Z,16.82
2019-04-20T20:52:22.023Z,14.33
2019-04-20T20:54:46.325Z,15.13
2019-04-20T20:57:12.690Z,15.23
2019-04-20T20:59:48.203Z,13.13
2019-04-20T21:02:18.001Z,14.03
2019-04-20T21:04:39.530Z,17.00
2019-04-20T21:07:10.972Z,12.37
2019-04-20T21:09:41.826Z,14.93
2019-04-20T21:12:15.906Z,18.42
2019-04-20T21:14:44.121Z,20.43
2019-04-20T21:17:18.446Z,36.85
2019-04-20T21:19:58.183Z,62.43
2019-04-20T21:22:32.449Z,57.23
2019-04-20T21:24:52.963Z,45.78
2019-04-20T21:27:23.943Z,38.67
2019-04-20T21:29:57.855Z,15.43
2019-04-20T21:32:26.156Z,13.10
2019-04-20T21:35:01.263Z,12.55
2019-04-20T21:37:27.292Z,23.57
2019-04-20T21:40:00.550Z,21.57
2019-04-20T21:42:34.788Z,18.65
2019-04-20T21:45:07.706Z,19.32
2019-04-20T21:47:34.671Z,19.70
2019-04-20T21:50:18.734Z,20.88
2019-04-20T21:52:40.773Z,19.48
2019-04-20T21:55:04.228Z,19.97
2019-04-20T21:57:42.064Z,22.27
2019-04-20T22:00:16.812Z,21.67
2019-04-20T22:02:48.573Z,20.08
2019-04-20T22:05:11.426Z,22.48
2019-04-20T22:07:40.770Z,25.03
2019-04-20T22:10:11.675Z,20.83
2019-04-20T22:12:47.592Z,18.57
2019-04-20T22:15:22.077Z,18.73
2019-04-20T22:17:42.783Z,22.53
2019-04-20T22:20:22.775Z,17.80
2019-04-20T22:22:57.151Z,18.85
2019-04-20T22:25:36.339Z,17.15
2019-04-20T22:27:44.323Z,20.43
2019-04-20T22:30:14.402Z,18.57
2019-04-20T22:32:46.989Z,20.37
2019-04-20T22:35:16.241Z,27.70
2019-04-20T22:38:06.989Z,23.57
2019-04-20T22:40:35.217Z,24.55
2019-04-20T22:43:04.293Z,22.10
2019-04-20T22:45:35.133Z,21.97
2019-04-20T22:48:08.203Z,20.53
2019-04-20T22:50:51.053Z,26.07
2019-04-20T22:53:17.938Z,29.10
2019-04-20T22:56:00.379Z,24.10
2019-04-20T22:58:25.009Z,20.57
2019-04-20T23:00:46.740Z,22.80
2019-04-20T23:03:07.237Z,19.83
2019-04-20T23:05:36.571Z,18.07
2019-04-20T23:08:06.713Z,18.83
2019-04-20T23:10:39.996Z,21.87
2019-04-20T23:13:07.366Z,21.63
2019-04-20T23:15:36.380Z,21.03
2019-04-20T23:18:06.334Z,20.53
2019-04-20T23:20:38.485Z,21.40
2019-04-20T23:23:07.198Z,21.10
2019-04-20T23:25:36.507Z,23.03
2019-04-20T23:28:10.189Z,21.43
2019-04-20T23:30:39.359Z,22.27
2019-04-20T23:33:07.780Z,20.50
2019-04-20T23:35:37.568Z,20.30
2019-04-20T23:38:11.061Z,19.93
2019-04-20T23:40:37.773Z,22.83
2019-04-20T23:43:17.664Z,20.53
2019-04-20T23:45:57.136Z,20.33
2019-04-20T23:48:32.409Z,22.30
2019-04-20T23:51:09.934Z,21.43
2019-04-20T23:53:45.518Z,21.57
2019-04-20T23:55:59.594Z,19.93
2019-04-20T23:58:30.979Z,22.07
